Time;durP1;ratioP1;P1;durP2;ratioP2;P2;SDS_P1;SDS_P2;PMS_P1;PMS_P2;Temp;Humidity;BMP_temperature;BMP_pressure;BME280_temperature;BME280_humidity;BME280_pressure;Samples;Min_cycle;Max_cycle;Signal;HPM_P1;HPM_P2
2023/07/02 00:00:05;;;;;;;;;;;;;;;33.14;30.62;97202.66;5049584;28;19974;-82
2023/07/02 00:02:31;;;;;;;;;;;;;;;33.14;31.66;97205.53;5045453;28;19929;-82
2023/07/02 00:04:57;;;;;;;;;;;;;;;33.15;31.43;97209.94;5049628;28;19925;-82
2023/07/02 00:07:23;;;;;;;;;;;;;;;33.33;31.42;97209.41;5040357;28;19921;-82
2023/07/02 00:09:49;;;;;;;;;;;;;;;33.47;30.93;97207.56;5051357;28;19928;-83
2023/07/02 00:12:15;;;;;;;;;;;;;;;33.47;30.99;97204.72;5043501;28;19921;-82
2023/07/02 00:14:41;;;;;;;;;;;;;;;33.36;30.87;97205.53;5049528;28;19920;-82
2023/07/02 00:17:07;;;;;;;;;;;;;;;33.13;31.86;97212.50;5050002;28;19917;-82
2023/07/02 00:19:33;;;;;;;;;;;;;;;33.26;31.44;97204.22;5045086;28;20031;-82
2023/07/02 00:21:59;;;;;;;;;;;;;;;33.21;31.67;97207.09;5049489;28;19937;-82
2023/07/02 00:24:25;;;;;;;;;;;;;;;33.34;31.56;97195.94;5050525;28;19929;-83
2023/07/02 00:26:51;;;;;;;;;;;;;;;33.13;31.66;97197.50;5045821;28;19921;-83
2023/07/02 00:29:17;;;;;;;;;;;;;;;33.24;31.32;97198.28;5045622;28;19927;-83
2023/07/02 00:31:43;;;;;;;;;;;;;;;33.39;31.38;97193.09;5048624;28;19928;-83
2023/07/02 00:34:09;;;;;;;;;;;;;;;33.28;31.85;97200.88;5048627;28;19932;-83
2023/07/02 00:36:35;;;;;;;;;;;;;;;33.22;31.14;97191.56;5046984;28;19964;-83
2023/07/02 00:39:02;;;;;;;;;;;;;;;33.27;31.56;97194.41;5045857;28;19929;-83
2023/07/02 00:41:28;;;;;;;;;;;;;;;33.34;31.28;97193.09;5043355;28;19967;-83
2023/07/02 00:43:54;;;;;;;;;;;;;;;33.45;31.01;97193.09;5047040;28;19924;-83
2023/07/02 00:46:21;;;;;;;;;;;;;;;33.38;30.47;97200.09;5045874;28;19929;-82
2023/07/02 00:48:48;;;;;;;;;;;;;;;32.79;31.23;97195.91;5047851;28;19936;-82
2023/07/02 00:51:15;;;;;;;;;;;;;;;32.34;32.80;97189.31;5044757;28;20372;-82
2023/07/02 00:53:41;;;;;;;;;;;;;;;32.55;31.81;97190.69;5043980;28;20435;-82
2023/07/02 00:56:07;;;;;;;;;;;;;;;32.60;31.92;97187.09;5051286;28;20386;-82
2023/07/02 00:58:35;;;;;;;;;;;;;;;32.45;32.42;97181.59;5044439;28;19929;-82
2023/07/02 01:01:01;;;;;;;;;;;;;;;32.58;32.38;97195.38;5045575;28;19963;-82
2023/07/02 01:03:28;;;;;;;;;;;;;;;32.65;32.40;97192.03;5047615;28;20020;-82
2023/07/02 01:05:54;;;;;;;;;;;;;;;32.80;32.25;97178.31;5048478;28;20333;-82
2023/07/02 01:08:20;;;;;;;;;;;;;;;33.01;32.22;97184.53;5047363;28;20380;-82
2023/07/02 01:10:46;;;;;;;;;;;;;;;33.09;31.62;97189.25;5046576;28;19932;-82
2023/07/02 01:13:16;;;;;;;;;;;;;;;33.28;31.23;97186.66;5047509;28;19920;-82
2023/07/02 01:15:44;;;;;;;;;;;;;;;33.36;31.09;97185.59;5050286;28;20011;-83
2023/07/02 01:18:11;;;;;;;;;;;;;;;33.07;31.76;97186.13;5049498;28;19963;-82
2023/07/02 01:20:37;;;;;;;;;;;;;;;33.10;32.17;97187.16;5050908;28;19917;-82
2023/07/02 01:23:03;;;;;;;;;;;;;;;33.16;31.83;97182.25;5050522;28;19921;-82
2023/07/02 01:25:29;;;;;;;;;;;;;;;33.26;31.33;97184.31;5045643;28;19978;-82
2023/07/02 01:27:58;;;;;;;;;;;;;;;33.14;31.77;97179.91;5040800;28;19921;-82
2023/07/02 01:30:25;;;;;;;;;;;;;;;33.20;31.61;97192.09;5047745;28;20180;-82
2023/07/02 01:32:52;;;;;;;;;;;;;;;33.35;31.70;97181.19;5049107;28;19974;-82
2023/07/02 01:35:18;;;;;;;;;;;;;;;33.41;31.47;97173.44;5048002;28;20436;-82
2023/07/02 01:37:44;;;;;;;;;;;;;;;33.50;31.48;97178.06;5046432;28;20093;-82
2023/07/02 01:40:10;;;;;;;;;;;;;;;33.47;31.10;97181.19;5049010;28;19968;-82
2023/07/02 01:42:37;;;;;;;;;;;;;;;33.27;31.43;97177.34;5049794;28;19924;-82
2023/07/02 01:45:03;;;;;;;;;;;;;;;33.27;31.50;97170.88;5047320;28;19921;-82
2023/07/02 01:47:29;;;;;;;;;;;;;;;33.27;31.36;97170.88;5050531;28;20011;-82
2023/07/02 01:49:55;;;;;;;;;;;;;;;33.27;31.78;97171.66;5036333;28;20004;-82
2023/07/02 01:52:21;;;;;;;;;;;;;;;33.26;31.98;97164.38;5047670;28;20568;-82
2023/07/02 01:54:47;;;;;;;;;;;;;;;33.22;31.66;97165.94;5050322;28;20019;-82
2023/07/02 01:57:13;;;;;;;;;;;;;;;33.23;32.00;97165.44;5050498;28;20422;-82
2023/07/02 01:59:39;;;;;;;;;;;;;;;33.29;31.90;97165.41;5057093;28;19956;-82
2023/07/02 02:02:05;;;;;;;;;;;;;;;33.49;31.62;97170.84;5050492;28;19952;-82
2023/07/02 02:04:31;;;;;;;;;;;;;;;33.64;31.50;97170.56;5054516;28;20047;-82
2023/07/02 02:06:57;;;;;;;;;;;;;;;33.76;31.53;97160.69;5057924;28;20006;-82
2023/07/02 02:09:23;;;;;;;;;;;;;;;33.59;31.21;97166.44;5053721;28;20012;-82
2023/07/02 02:11:50;;;;;;;;;;;;;;;33.40;31.82;97160.50;5055777;28;20010;-82
2023/07/02 02:14:16;;;;;;;;;;;;;;;33.36;31.76;97160.00;5057120;28;20083;-82
2023/07/02 02:16:45;;;;;;;;;;;;;;;33.34;32.14;97162.59;5050990;28;20007;-82
2023/07/02 02:19:11;;;;;;;;;;;;;;;33.39;31.89;97167.50;5058785;28;19920;-82
2023/07/02 02:21:37;;;;;;;;;;;;;;;33.36;32.13;97165.69;5057620;28;20273;-82
2023/07/02 02:24:03;;;;;;;;;;;;;;;33.16;32.19;97162.34;5054596;28;19940;-82
2023/07/02 02:26:29;;;;;;;;;;;;;;;32.95;32.46;97156.13;5055961;28;20325;-82
2023/07/02 02:28:57;;;;;;;;;;;;;;;32.97;32.51;97159.22;5054833;28;20043;-82
2023/07/02 02:31:23;;;;;;;;;;;;;;;33.11;32.45;97163.13;5052020;28;19921;-83
2023/07/02 02:33:49;;;;;;;;;;;;;;;33.31;32.33;97165.69;5053269;28;19928;-83
2023/07/02 02:36:15;;;;;;;;;;;;;;;33.20;32.04;97160.78;5051553;28;19921;-83
2023/07/02 02:38:41;;;;;;;;;;;;;;;33.20;31.96;97169.31;5055253;28;20000;-83
2023/07/02 02:41:08;;;;;;;;;;;;;;;33.35;32.01;97164.13;5054717;28;19968;-83
2023/07/02 02:43:34;;;;;;;;;;;;;;;33.48;32.06;97165.66;5050905;28;20396;-83
2023/07/02 02:46:00;;;;;;;;;;;;;;;33.55;31.76;97160.25;5049158;28;20348;-83
2023/07/02 02:48:28;;;;;;;;;;;;;;;33.64;31.98;97162.81;5050547;28;20481;-83
2023/07/02 02:50:54;;;;;;;;;;;;;;;33.63;32.05;97163.34;5050722;28;19925;-82
2023/07/02 02:53:20;;;;;;;;;;;;;;;33.65;31.60;97155.81;5055622;28;19920;-83
2023/07/02 02:55:46;;;;;;;;;;;;;;;33.54;31.49;97152.22;5051859;28;19923;-82
2023/07/02 02:58:12;;;;;;;;;;;;;;;33.34;31.85;97156.88;5053217;28;19944;-82
2023/07/02 03:00:42;;;;;;;;;;;;;;;33.21;32.36;97150.19;5048962;28;19956;-83
2023/07/02 03:03:08;;;;;;;;;;;;;;;33.36;32.49;97154.28;5049179;28;19931;-82
2023/07/02 03:05:34;;;;;;;;;;;;;;;33.36;32.52;97148.59;5055248;28;19956;-82
2023/07/02 03:08:00;;;;;;;;;;;;;;;33.36;32.08;97151.44;5052499;28;20324;-82
2023/07/02 03:10:28;;;;;;;;;;;;;;;33.30;32.10;97147.81;5049320;28;19916;-83
2023/07/02 03:12:54;;;;;;;;;;;;;;;33.16;32.33;97148.13;5051266;28;19921;-82
2023/07/02 03:15:20;;;;;;;;;;;;;;;33.13;32.57;97149.16;5052488;28;19962;-82
2023/07/02 03:17:46;;;;;;;;;;;;;;;33.36;32.13;97150.66;5047760;28;20372;-82
2023/07/02 03:20:12;;;;;;;;;;;;;;;33.66;31.22;97150.88;5051588;28;20371;-82
2023/07/02 03:22:38;;;;;;;;;;;;;;;33.90;31.38;97142.53;5041780;28;19960;-83
2023/07/02 03:25:04;;;;;;;;;;;;;;;33.87;31.54;97137.88;5048707;28;20060;-82
2023/07/02 03:27:30;;;;;;;;;;;;;;;33.80;31.84;97146.94;5051906;28;20401;-82
2023/07/02 03:29:56;;;;;;;;;;;;;;;33.67;31.82;97146.75;5047661;28;19928;-83
2023/07/02 03:32:22;;;;;;;;;;;;;;;33.49;31.98;97142.38;5049638;28;19921;-82
2023/07/02 03:34:48;;;;;;;;;;;;;;;33.69;32.18;97138.47;5047793;28;19940;-82
2023/07/02 03:37:14;;;;;;;;;;;;;;;34.01;31.77;97142.47;5050220;28;19921;-82
2023/07/02 03:39:40;;;;;;;;;;;;;;;34.33;32.16;97140.78;5053379;28;19994;-82
2023/07/02 03:42:06;;;;;;;;;;;;;;;34.96;31.68;97139.88;5039533;28;19967;-83
2023/07/02 03:44:32;;;;;;;;;;;;;;;35.38;31.71;97134.28;5052214;28;19978;-83
2023/07/02 03:46:58;;;;;;;;;;;;;;;35.66;30.62;97139.75;5047781;28;19925;-82
2023/07/02 03:49:24;;;;;;;;;;;;;;;35.65;31.57;97137.44;5049139;28;20012;-83
2023/07/02 03:51:50;;;;;;;;;;;;;;;35.74;30.78;97146.41;5046734;28;19968;-83
2023/07/02 03:54:16;;;;;;;;;;;;;;;35.72;30.94;97133.97;5044495;28;19978;-82
2023/07/02 03:56:42;;;;;;;;;;;;;;;35.77;31.11;97144.56;5044410;28;19928;-82
2023/07/02 03:59:08;;;;;;;;;;;;;;;35.90;31.25;97138.94;5051719;28;19929;-83
2023/07/02 04:01:34;;;;;;;;;;;;;;;36.03;31.71;97147.66;5048982;28;20393;-83
2023/07/02 04:04:00;;;;;;;;;;;;;;;36.16;31.09;97146.97;5049764;28;19925;-83
2023/07/02 04:06:26;;;;;;;;;;;;;;;36.31;31.41;97141.59;5051199;28;19921;-83
2023/07/02 04:08:52;;;;;;;;;;;;;;;36.32;31.99;97140.25;5046499;28;19967;-83
2023/07/02 04:11:18;;;;;;;;;;;;;;;36.41;30.69;97146.38;5049019;28;20439;-83
2023/07/02 04:13:44;;;;;;;;;;;;;;;36.41;30.75;97145.63;5048448;28;20015;-83
2023/07/02 04:16:10;;;;;;;;;;;;;;;36.35;30.60;97145.69;5044783;28;19936;-83
2023/07/02 04:18:36;;;;;;;;;;;;;;;36.43;30.79;97154.41;5044492;28;19974;-83
2023/07/02 04:21:02;;;;;;;;;;;;;;;36.55;31.02;97155.84;5049445;28;19925;-83
2023/07/02 04:23:28;;;;;;;;;;;;;;;36.67;30.85;97157.19;5050926;28;19963;-83
2023/07/02 04:25:54;;;;;;;;;;;;;;;36.83;30.78;97159.03;5045949;28;19964;-83
2023/07/02 04:28:20;;;;;;;;;;;;;;;36.86;30.97;97160.81;5048755;28;19952;-83
2023/07/02 04:30:49;;;;;;;;;;;;;;;36.91;31.45;97167.75;5041843;28;20008;-83
2023/07/02 04:33:15;;;;;;;;;;;;;;;36.90;31.04;97158.41;5048902;28;19924;-84
2023/07/02 04:35:41;;;;;;;;;;;;;;;36.95;31.05;97165.38;5036257;28;19928;-83
2023/07/02 04:38:07;;;;;;;;;;;;;;;37.08;31.76;97169.09;5045887;28;19967;-84
2023/07/02 04:40:33;;;;;;;;;;;;;;;37.21;31.72;97168.34;5042947;28;19921;-84
2023/07/02 04:42:59;;;;;;;;;;;;;;;37.35;31.73;97172.78;5044946;28;20011;-83
2023/07/02 04:45:26;;;;;;;;;;;;;;;37.58;32.02;97171.09;5047570;28;20016;-84
2023/07/02 04:47:52;;;;;;;;;;;;;;;38.09;30.47;97173.78;5042165;28;19971;-83
2023/07/02 04:53:31;;;;;;;;;;;;;;;38.48;30.24;97176.63;5048934;28;20013;-83
2023/07/02 04:55:57;;;;;;;;;;;;;;;38.61;29.85;97183.09;5047981;28;19967;-84
2023/07/02 04:58:23;;;;;;;;;;;;;;;38.67;27.72;97180.13;5049395;28;20392;-83
2023/07/02 05:00:49;;;;;;;;;;;;;;;38.65;29.11;97171.28;5051224;28;20395;-83
2023/07/02 05:03:15;;;;;;;;;;;;;;;38.81;29.47;97173.03;5049660;28;19924;-83
2023/07/02 05:05:41;;;;;;;;;;;;;;;38.92;30.14;97172.75;5044378;28;19920;-83
2023/07/02 05:08:07;;;;;;;;;;;;;;;39.04;29.25;97179.00;5050645;28;19921;-83
2023/07/02 05:10:33;;;;;;;;;;;;;;;39.07;30.61;97167.16;5046735;28;19920;-83
2023/07/02 05:12:59;;;;;;;;;;;;;;;39.15;31.54;97175.88;5045317;28;19921;-83
2023/07/02 05:15:26;;;;;;;;;;;;;;;39.25;29.72;97171.19;5041791;28;20419;-83
2023/07/02 05:17:52;;;;;;;;;;;;;;;39.33;31.24;97184.28;5043694;28;19921;-83
2023/07/02 05:20:18;;;;;;;;;;;;;;;39.44;31.15;97180.38;5048553;28;19920;-84
2023/07/02 05:22:44;;;;;;;;;;;;;;;39.52;29.58;97186.16;5044714;28;19978;-83
2023/07/02 05:25:10;;;;;;;;;;;;;;;39.52;28.94;97186.16;5044740;28;20281;-84
2023/07/02 05:27:36;;;;;;;;;;;;;;;39.21;30.51;97176.53;5049069;28;19925;-83
2023/07/02 05:30:02;;;;;;;;;;;;;;;39.01;30.68;97185.84;5042892;28;19921;-83
2023/07/02 05:32:28;;;;;;;;;;;;;;;38.88;31.24;97183.06;5048069;28;19978;-84
2023/07/02 05:34:54;;;;;;;;;;;;;;;39.14;31.91;97191.56;5048310;28;20293;-84
2023/07/02 05:37:21;;;;;;;;;;;;;;;39.34;31.79;97187.94;5038610;28;19947;-84
2023/07/02 05:39:48;;;;;;;;;;;;;;;39.58;30.06;97187.63;5037876;28;19975;-84
2023/07/02 05:42:14;;;;;;;;;;;;;;;39.59;31.90;97189.13;5047352;28;19927;-84
2023/07/02 05:44:40;;;;;;;;;;;;;;;39.60;28.75;97190.69;5045810;28;19929;-84
2023/07/02 05:47:06;;;;;;;;;;;;;;;39.47;30.40;97192.84;5042813;28;19920;-84
2023/07/02 05:49:32;;;;;;;;;;;;;;;39.60;29.98;97184.16;5045643;28;19921;-84
2023/07/02 05:51:58;;;;;;;;;;;;;;;39.82;30.53;97181.44;5042985;28;19943;-85
2023/07/02 05:54:24;;;;;;;;;;;;;;;39.79;27.99;97179.72;5042480;28;19955;-86
2023/07/02 05:56:50;;;;;;;;;;;;;;;39.72;27.70;97189.06;5039098;28;20304;-85
2023/07/02 05:59:18;;;;;;;;;;;;;;;39.59;30.07;97183.38;5040569;28;19947;-85
2023/07/02 06:01:44;;;;;;;;;;;;;;;39.59;28.99;97188.34;5047316;28;19920;-85
2023/07/02 06:04:10;;;;;;;;;;;;;;;39.65;28.44;97189.00;5042291;28;19921;-85
2023/07/02 06:06:36;;;;;;;;;;;;;;;39.54;27.83;97190.03;5040749;28;19925;-86
2023/07/02 06:09:03;;;;;;;;;;;;;;;39.50;28.88;97192.47;5044360;28;19939;-87
2023/07/02 06:11:29;;;;;;;;;;;;;;;39.55;29.20;97197.31;5043221;28;19928;-86
2023/07/02 06:13:55;;;;;;;;;;;;;;;39.58;26.90;97198.31;5038773;28;19967;-87
2023/07/02 06:16:21;;;;;;;;;;;;;;;39.26;24.13;97185.00;5041512;28;19921;-86
2023/07/02 06:18:47;;;;;;;;;;;;;;;38.75;27.80;97200.31;5041585;28;19943;-84
2023/07/02 06:21:13;;;;;;;;;;;;;;;38.76;27.55;97196.13;5044400;28;19931;-83
2023/07/02 06:23:41;;;;;;;;;;;;;;;38.56;25.26;97192.59;5044748;28;19920;-85
2023/07/02 06:26:07;;;;;;;;;;;;;;;38.32;26.39;97189.25;5042138;28;20380;-85
2023/07/02 06:28:33;;;;;;;;;;;;;;;37.62;24.62;97194.47;5039267;28;20301;-85
2023/07/02 06:30:59;;;;;;;;;;;;;;;37.54;25.97;97187.06;5047047;28;20016;-85
2023/07/02 06:33:25;;;;;;;;;;;;;;;37.80;26.62;97192.81;5045708;28;20330;-87
2023/07/02 06:35:51;;;;;;;;;;;;;;;38.05;26.06;97189.22;5034045;28;19924;-84
2023/07/02 06:38:17;;;;;;;;;;;;;;;37.94;25.39;97188.66;5045826;28;19997;-85
2023/07/02 06:40:43;;;;;;;;;;;;;;;37.79;27.08;97194.91;5047981;28;20030;-86
2023/07/02 06:43:09;;;;;;;;;;;;;;;37.92;24.58;97197.06;5048009;28;19920;-82
2023/07/02 06:45:35;;;;;;;;;;;;;;;37.73;25.24;97196.34;5046050;28;19917;-85
2023/07/02 06:48:01;;;;;;;;;;;;;;;38.16;28.11;97202.56;5052241;28;20373;-85
2023/07/02 06:50:27;;;;;;;;;;;;;;;38.56;26.01;97192.59;5051570;28;19920;-85
2023/07/02 06:52:53;;;;;;;;;;;;;;;38.79;27.00;97195.00;5051145;28;20506;-85
2023/07/02 06:55:19;;;;;;;;;;;;;;;38.12;23.63;97187.78;5045687;28;19927;-85
2023/07/02 06:57:45;;;;;;;;;;;;;;;37.73;23.63;97200.00;5049168;28;20020;-85
2023/07/02 07:00:12;;;;;;;;;;;;;;;37.17;27.74;97199.38;5049534;28;20291;-83
2023/07/02 07:02:38;;;;;;;;;;;;;;;37.23;24.64;97202.91;5048484;28;19947;-84
2023/07/02 07:05:05;;;;;;;;;;;;;;;37.50;24.66;97200.94;5048048;28;21672;-82
2023/07/02 07:07:31;;;;;;;;;;;;;;;36.54;23.82;97206.53;5044536;28;19921;-83
2023/07/02 07:09:57;;;;;;;;;;;;;;;36.32;33.42;97206.78;5049045;28;20280;-82
2023/07/02 07:12:23;;;;;;;;;;;;;;;36.56;24.25;97209.63;5045181;28;19987;-82
2023/07/02 07:14:49;;;;;;;;;;;;;;;36.31;24.99;97210.19;5041964;28;19920;-84
2023/07/02 07:17:15;;;;;;;;;;;;;;;36.97;24.49;97208.56;5045550;28;19925;-83
2023/07/02 07:19:41;;;;;;;;;;;;;;;37.31;24.58;97210.34;5048875;28;20368;-83
2023/07/02 07:22:07;;;;;;;;;;;;;;;37.06;27.24;97217.50;5049852;28;19971;-84
2023/07/02 07:24:33;;;;;;;;;;;;;;;36.69;24.67;97212.56;5044737;28;19921;-84
2023/07/02 07:26:59;;;;;;;;;;;;;;;35.76;34.18;97226.63;5040069;28;19968;-86
2023/07/02 07:29:25;;;;;;;;;;;;;;;35.99;28.71;97218.63;5035554;28;20258;-85
2023/07/02 07:31:51;;;;;;;;;;;;;;;36.57;24.84;97236.91;5045038;28;20648;-84
2023/07/02 07:34:17;;;;;;;;;;;;;;;36.49;28.58;97229.50;5047667;28;20032;-86
2023/07/02 07:36:43;;;;;;;;;;;;;;;35.90;34.35;97233.25;5044636;28;20023;-86
2023/07/02 07:39:09;;;;;;;;;;;;;;;36.49;25.71;97235.22;5043299;28;19928;-86
2023/07/02 07:41:35;;;;;;;;;;;;;;;36.69;24.82;97231.81;5041334;28;20023;-84
2023/07/02 07:44:01;;;;;;;;;;;;;;;36.85;26.16;97239.41;5046530;28;19974;-86
2023/07/02 07:46:27;;;;;;;;;;;;;;;35.29;37.64;97230.94;5047744;28;20356;-86
2023/07/02 07:48:53;;;;;;;;;;;;;;;35.03;37.86;97236.34;5044192;28;20415;-84
2023/07/02 07:51:19;;;;;;;;;;;;;;;35.81;28.79;97242.16;5044698;28;19965;-83
2023/07/02 07:53:46;;;;;;;;;;;;;;;36.09;25.25;97239.81;5043073;28;19944;-84
2023/07/02 07:56:12;;;;;;;;;;;;;;;36.17;26.25;97242.88;5047406;28;19936;-86
2023/07/02 07:58:38;;;;;;;;;;;;;;;35.99;27.63;97250.06;5045651;28;20035;-86
2023/07/02 08:01:04;;;;;;;;;;;;;;;35.99;29.85;97250.06;5043719;28;19999;-86
2023/07/02 08:03:30;;;;;;;;;;;;;;;36.29;29.75;97252.88;5050417;28;19967;-86
2023/07/02 08:05:56;;;;;;;;;;;;;;;36.84;26.17;97257.09;5042725;28;19960;-85
2023/07/02 08:08:22;;;;;;;;;;;;;;;36.97;25.85;97248.63;5050210;28;19917;-85
2023/07/02 08:10:49;;;;;;;;;;;;;;;36.00;33.76;97252.41;5047486;28;20414;-87
2023/07/02 08:13:17;;;;;;;;;;;;;;;35.72;31.14;97256.81;5045067;28;19921;-86
2023/07/02 08:15:43;;;;;;;;;;;;;;;36.14;27.26;97261.84;5048646;28;20687;-87
2023/07/02 08:18:11;;;;;;;;;;;;;;;36.08;33.45;97260.38;5045197;28;19917;-87
2023/07/02 08:20:37;;;;;;;;;;;;;;;36.13;24.98;97251.72;5049185;28;19924;-85
2023/07/02 08:23:03;;;;;;;;;;;;;;;36.16;29.98;97261.31;5049743;28;19936;-85
2023/07/02 08:25:30;;;;;;;;;;;;;;;35.79;26.12;97254.16;5045704;28;19921;-85
2023/07/02 08:27:56;;;;;;;;;;;;;;;36.04;31.52;97254.94;5045191;28;20385;-86
2023/07/02 08:30:22;;;;;;;;;;;;;;;36.12;27.73;97247.34;5041039;28;19928;-85
2023/07/02 08:32:48;;;;;;;;;;;;;;;36.12;25.80;97255.91;5044942;28;19925;-85
2023/07/02 08:35:14;;;;;;;;;;;;;;;36.91;25.50;97242.16;5043270;28;20270;-86
2023/07/02 08:37:40;;;;;;;;;;;;;;;36.59;23.66;97245.75;5047133;28;19927;-85
2023/07/02 08:40:15;;;;;;;;;;;;;;;36.38;27.22;97255.34;5045275;28;20015;-87
2023/07/02 08:42:41;;;;;;;;;;;;;;;36.92;25.17;97250.25;5038564;28;19974;-87
2023/07/02 08:45:08;;;;;;;;;;;;;;;35.22;34.25;97265.75;5044498;28;19981;-89
2023/07/02 08:47:34;;;;;;;;;;;;;;;35.86;25.92;97267.84;5042942;28;19928;-88
2023/07/02 08:50:03;;;;;;;;;;;;;;;36.11;25.45;97262.19;5039631;28;19929;-85
2023/07/02 08:52:29;;;;;;;;;;;;;;;35.70;26.22;97263.06;5047263;28;19932;-88
2023/07/02 08:54:54;;;;;;;;;;;;;;;35.65;34.72;97260.25;5044143;28;19924;-87
2023/07/02 08:57:21;;;;;;;;;;;;;;;36.29;25.32;97270.78;5040988;28;19947;-88
2023/07/02 08:59:48;;;;;;;;;;;;;;;34.54;30.76;97264.59;5049926;28;19932;-86
2023/07/02 09:02:15;;;;;;;;;;;;;;;34.81;28.92;97257.19;5053047;28;19921;-86
2023/07/02 09:04:41;;;;;;;;;;;;;;;35.25;26.94;97268.34;5047798;28;19921;-87
2023/07/02 09:07:11;;;;;;;;;;;;;;;35.36;28.62;97273.97;5041474;28;20609;-88
2023/07/02 09:09:46;;;;;;;;;;;;;;;36.29;27.21;97270.78;5041097;28;19943;-89
2023/07/02 09:12:22;;;;;;;;;;;;;;;35.78;27.77;97278.28;5038436;28;19928;-87
2023/07/02 09:14:53;;;;;;;;;;;;;;;35.39;26.74;97278.63;5041421;28;19925;-87
2023/07/02 09:17:19;;;;;;;;;;;;;;;34.72;27.31;97281.09;5040829;28;19921;-87
2023/07/02 09:19:51;;;;;;;;;;;;;;;34.93;28.29;97289.28;5048633;28;19928;-88
2023/07/02 09:22:17;;;;;;;;;;;;;;;35.09;27.92;97283.50;5044803;28;19921;-87
2023/07/02 09:24:51;;;;;;;;;;;;;;;34.80;29.29;97294.81;5039796;28;19928;-87
2023/07/02 09:27:17;;;;;;;;;;;;;;;34.83;28.87;97290.88;5040825;28;19957;-86
2023/07/02 09:29:43;;;;;;;;;;;;;;;34.73;28.09;97301.81;5034690;28;19990;-87
2023/07/02 09:32:09;;;;;;;;;;;;;;;34.14;26.84;97292.97;5044093;28;20009;-85
2023/07/02 09:34:36;;;;;;;;;;;;;;;34.35;29.30;97311.28;5039480;28;19921;-87
2023/07/02 09:37:03;;;;;;;;;;;;;;;34.25;35.61;97298.63;5044318;28;20416;-84
2023/07/02 09:39:30;;;;;;;;;;;;;;;33.73;27.47;97299.19;5046237;28;19929;-86
2023/07/02 09:41:57;;;;;;;;;;;;;;;34.10;27.25;97306.72;5048438;28;19921;-86
2023/07/02 09:44:31;;;;;;;;;;;;;;;33.77;26.80;97321.75;5045462;28;20308;-89
2023/07/02 09:47:03;;;;;;;;;;;;;;;34.52;31.17;97312.00;5039926;28;19928;-86
2023/07/02 09:49:31;;;;;;;;;;;;;;;34.52;28.39;97307.09;5046314;28;20408;-86
2023/07/02 09:51:58;;;;;;;;;;;;;;;35.59;29.04;97305.25;5046212;28;19937;-87
2023/07/02 09:54:24;;;;;;;;;;;;;;;36.16;26.05;97307.06;5046806;28;20016;-86
2023/07/02 09:56:50;;;;;;;;;;;;;;;36.22;25.86;97307.78;5042788;28;19968;-86
2023/07/02 09:59:17;;;;;;;;;;;;;;;35.98;29.25;97309.31;5047299;28;20386;-87
2023/07/02 10:01:43;;;;;;;;;;;;;;;35.50;26.06;97309.19;5052019;28;19921;-86
2023/07/02 10:04:13;;;;;;;;;;;;;;;35.75;26.84;97321.47;5053180;28;19968;-86
2023/07/02 10:06:48;;;;;;;;;;;;;;;35.22;29.54;97320.78;5041834;28;19925;-86
2023/07/02 10:09:15;;;;;;;;;;;;;;;35.68;27.09;97311.41;5045430;28;19921;-85
2023/07/02 10:11:41;;;;;;;;;;;;;;;35.32;26.42;97302.03;5051259;28;19920;-86
2023/07/02 10:14:07;;;;;;;;;;;;;;;34.73;28.61;97324.66;5046150;28;19932;-85
2023/07/02 10:16:33;;;;;;;;;;;;;;;34.54;28.13;97329.41;5043271;28;20300;-87
2023/07/02 10:19:09;;;;;;;;;;;;;;;35.23;28.25;97307.28;5044151;28;20016;-87
2023/07/02 10:21:35;;;;;;;;;;;;;;;36.24;26.84;97305.16;5050649;28;19991;-87
2023/07/02 10:24:10;;;;;;;;;;;;;;;35.60;27.71;97309.63;5045583;28;20004;-87
2023/07/02 10:26:36;;;;;;;;;;;;;;;35.10;33.96;97290.75;5045994;28;19921;-86
2023/07/02 10:29:03;;;;;;;;;;;;;;;35.11;27.55;97309.44;5039802;28;19925;-86
2023/07/02 10:31:29;;;;;;;;;;;;;;;34.53;33.53;97308.66;5041569;28;19924;-88
2023/07/02 10:33:55;;;;;;;;;;;;;;;34.28;30.69;97309.78;5043622;28;20015;-88
2023/07/02 10:36:22;;;;;;;;;;;;;;;35.13;28.54;97314.59;5045588;28;19925;-87
2023/07/02 10:38:49;;;;;;;;;;;;;;;34.58;27.99;97305.03;5043488;28;19924;-86
2023/07/02 10:41:29;;;;;;;;;;;;;;;34.95;28.80;97312.34;5051526;28;19921;-90
2023/07/02 10:44:05;;;;;;;;;;;;;;;35.81;27.58;97322.16;5045315;28;20293;-88
2023/07/02 10:46:31;;;;;;;;;;;;;;;34.58;28.93;97319.28;5042545;28;19921;-87
2023/07/02 10:48:57;;;;;;;;;;;;;;;35.34;27.89;97318.63;5043196;28;20303;-87
2023/07/02 10:51:28;;;;;;;;;;;;;;;34.39;29.08;97318.28;5051974;28;19990;-89
2023/07/02 10:53:58;;;;;;;;;;;;;;;34.18;29.45;97311.34;5039863;28;19924;-87
2023/07/02 10:56:26;;;;;;;;;;;;;;;33.99;34.16;97324.56;5044060;28;19929;-88
2023/07/02 10:58:52;;;;;;;;;;;;;;;33.91;31.58;97312.91;5037257;28;19921;-86
2023/07/02 11:01:22;;;;;;;;;;;;;;;33.35;32.25;97305.66;5044928;28;19921;-85
2023/07/02 11:03:55;;;;;;;;;;;;;;;33.84;32.96;97310.56;5040340;28;19932;-88
2023/07/02 11:06:21;;;;;;;;;;;;;;;34.39;30.15;97308.94;5052240;28;19927;-87
2023/07/02 11:08:47;;;;;;;;;;;;;;;34.45;30.45;97301.16;5050627;28;19921;-89
2023/07/02 11:11:13;;;;;;;;;;;;;;;35.17;28.52;97295.13;5049249;28;20025;-88
2023/07/02 11:13:52;;;;;;;;;;;;;;;36.57;27.40;97296.22;5048955;28;20265;-87
2023/07/02 11:16:18;;;;;;;;;;;;;;;36.03;29.01;97288.50;5044582;28;19967;-88
2023/07/02 11:18:44;;;;;;;;;;;;;;;36.08;27.28;97284.78;5050569;28;20285;-89
2023/07/02 11:21:10;;;;;;;;;;;;;;;36.47;26.29;97292.19;5049826;28;19924;-88
2023/07/02 11:23:36;;;;;;;;;;;;;;;35.15;28.03;97289.94;5046846;28;19921;-87
2023/07/02 11:26:03;;;;;;;;;;;;;;;35.31;29.02;97289.03;5044126;28;19921;-87
2023/07/02 11:28:30;;;;;;;;;;;;;;;35.38;28.82;97284.88;5046518;28;20400;-88
2023/07/02 11:30:57;;;;;;;;;;;;;;;35.84;28.68;97281.13;5050165;28;19928;-88
2023/07/02 11:33:33;;;;;;;;;;;;;;;35.17;31.31;97284.47;5054702;28;19983;-84
2023/07/02 11:35:59;;;;;;;;;;;;;;;36.03;27.00;97288.50;5042831;28;19925;-86
2023/07/02 11:38:26;;;;;;;;;;;;;;;35.83;28.49;97285.25;5046637;28;19925;-84
2023/07/02 11:40:52;;;;;;;;;;;;;;;36.11;28.75;97296.47;5045835;28;19921;-84
2023/07/02 11:43:18;;;;;;;;;;;;;;;35.12;27.37;97296.72;5045422;28;19924;-85
2023/07/02 11:45:44;;;;;;;;;;;;;;;35.14;30.07;97288.41;5045799;28;19921;-85
2023/07/02 11:48:10;;;;;;;;;;;;;;;35.39;28.08;97298.59;5055129;28;20415;-83
2023/07/02 11:50:37;;;;;;;;;;;;;;;35.15;27.42;97297.75;5048664;28;19921;-81
2023/07/02 11:53:03;;;;;;;;;;;;;;;34.87;29.18;97303.56;5054097;28;19975;-82
2023/07/02 11:55:29;;;;;;;;;;;;;;;35.54;27.81;97291.78;5052465;28;19931;-82
2023/07/02 11:57:55;;;;;;;;;;;;;;;35.99;29.09;97279.41;5047968;28;20027;-82
2023/07/02 12:00:21;;;;;;;;;;;;;;;35.37;29.88;97289.00;5043856;28;20123;-82
2023/07/02 12:02:48;;;;;;;;;;;;;;;36.35;27.34;97279.28;5042233;28;19917;-81
2023/07/02 12:05:14;;;;;;;;;;;;;;;36.19;28.25;97274.53;5043119;28;19928;-82
2023/07/02 12:07:40;;;;;;;;;;;;;;;36.59;27.15;97285.03;5045071;28;19925;-83
2023/07/02 12:10:07;;;;;;;;;;;;;;;35.37;30.57;97272.66;5043206;28;20300;-82
2023/07/02 12:12:33;;;;;;;;;;;;;;;35.67;29.08;97272.69;5046452;28;19925;-82
2023/07/02 12:14:59;;;;;;;;;;;;;;;37.18;26.29;97279.00;5043867;28;20011;-83
2023/07/02 12:17:25;;;;;;;;;;;;;;;37.24;24.47;97287.50;5049820;28;19952;-82
2023/07/02 12:19:51;;;;;;;;;;;;;;;37.82;23.63;97271.25;5039740;28;20340;-82
2023/07/02 12:22:18;;;;;;;;;;;;;;;36.86;26.36;97274.50;5045299;28;19925;-81
2023/07/02 12:24:44;;;;;;;;;;;;;;;37.23;26.17;97283.88;5046949;28;19921;-83
2023/07/02 12:27:10;;;;;;;;;;;;;;;37.74;24.15;97266.69;5046066;28;19932;-81
2023/07/02 12:29:37;;;;;;;;;;;;;;;36.30;25.57;97262.97;5044516;28;20292;-86
2023/07/02 12:32:04;;;;;;;;;;;;;;;36.97;24.61;97275.16;5048014;28;19936;-81
2023/07/02 12:34:31;;;;;;;;;;;;;;;37.10;24.87;97269.50;5046792;28;19921;-83
2023/07/02 12:36:57;;;;;;;;;;;;;;;37.05;25.77;97266.72;5051270;28;19928;-82
2023/07/02 12:39:23;;;;;;;;;;;;;;;36.89;25.46;97268.47;5046314;28;19927;-82
2023/07/02 12:41:49;;;;;;;;;;;;;;;37.62;24.85;97260.38;5040264;28;20019;-82
2023/07/02 12:44:15;;;;;;;;;;;;;;;38.12;25.49;97264.41;5050467;28;19951;-82
2023/07/02 12:46:41;;;;;;;;;;;;;;;38.48;22.93;97266.34;5040789;28;20007;-82